Houston, Texas
Traffic Map
Current Weather Conditions
Houston, Texas
Overcast Haze
Overcast
55°
Feels Like: 55°
Wind Chill: 55° Ceiling: 300
Heat Index: 55° Visibility: 0.5mi
Dew Point: 55° Wind: 8mph
Humidity: 100% Direction: 40° (NE)
Pressure: 29.88in Gusts: 0mph
Raw Report DataKIAH 191353Z 04007KT 1/2SM BR OVC003 13/13 A2988 RMK AO2 SFC VIS 3 RAB01E25 SLP119 TWR IN CLDS P0000 T01280128
Traffic Incident Summary
Active as of:
Severity:
Category:
InformationThere was an issue retrieving the traffic information for this location. Please try a different location or try again shortly.
Advertisements